Aérodrome :
LOGIN :

S'inscrire | Disclaimer

   EN    FR    IT 

 










Légende :    VFR   VFR Marginal   IFR   IFR Intensif   IFR Très Intensif
Visi : 
Plafond : 
>= 8 km
>= 3000ft
5 à 8 km
1000 à 3000 ft
1500m à 5 km
500 à 1000 ft
800 à 1500m
200 à 500 ft
< 800m
< 200 ft
Symboles :   Orages  Brouillard  Fortes neiges  Fortes précipitations  Vent > 20 kt
SIGMETs :   Divers  Orages  Givrage  Turbulence  Onde Orograph.  Cendres Volcan.







- Altitude de l'aérodrome : 0 ft
- Code IATA : QFR


LIRH - Frosinone Military

DERNIER METAR :
  • 181655Z 23002KT 2000 BR SCT001 SCT020TCU 08/07 Q1013 RETS RMK BKN MON INVIS NC VIS MIN 2000 WIND THR16 /////KT YLO

METARs EXPIRÉS :
  • 181609Z 09002KT 2000 BR SCT001 SCT020TCU 08/07 Q1013 RETS RMK BKN MON INVIS NC VIS MIN 2000 WIND THR16 /////KT YLO
  • 181555Z 26002KT 2000 -TS RA BR SCT001 BKN018 FEW020CB 09/08 Q1013
  • 181455Z 04003KT 2000 -TS RA BR SCT001 SCT020CB 09/07 Q1012 RMK OVC MON INVIS NC VIS MIN 2000 WIND THR16 /////KT YLO

TAF TAF LIRH
Valide du 18 à 15h jusqu'au 19 à 00h UTC


181400Z 1815/1824 VRB03KT 1500 RA SCT001 BKN020
TEMPO 1815/1817 20008KT TSRA FEW015CB
BECMG 1818/1820 2000 BR FEW005 SCT020
Pas de NOTAMs connus pour ce terrain.



MET'MAP, la Météo Aéronautique d'un coup d'oeil ! - Copyright ORBIFLY Décembre 2007 - Disclaimer

ORBIFLY MET'MAP TEAM :

Programmation & Développement : Alexandra Zaïnal
Conception & Développement : Baudouin d'Aumeries
Co-Programmation & Développement : Marc-Olivier Méhu
Soutien technique & logistique : Manuel Goepfert

Contact : metmap@orbifly.com




SOURCES & CREDITS :

   NOAA